createdAt,value
2018-10-07T00:01:41.242Z,5.20
2018-10-07T00:05:45.357Z,5.23
2018-10-07T00:09:49.786Z,5.87
2018-10-07T00:13:53.755Z,7.00
2018-10-07T00:17:58.774Z,7.27
2018-10-07T00:22:02.919Z,7.50
2018-10-07T00:26:09.090Z,6.75
2018-10-07T00:30:15.077Z,7.63
2018-10-07T00:34:19.379Z,7.90
2018-10-07T00:38:23.395Z,7.87
2018-10-07T00:42:27.602Z,7.80
2018-10-07T00:46:31.929Z,7.80
2018-10-07T00:50:36.124Z,7.67
2018-10-07T00:54:40.685Z,7.37
2018-10-07T00:58:45.014Z,7.17
2018-10-07T01:02:49.557Z,7.72
2018-10-07T01:06:54.260Z,7.27
2018-10-07T01:10:58.385Z,7.93
2018-10-07T01:15:02.636Z,7.73
2018-10-07T01:19:07.073Z,8.50
2018-10-07T01:23:12.480Z,8.77
2018-10-07T02:02:11.143Z,9.40
2018-10-07T02:06:16.215Z,8.57
2018-10-07T02:10:20.603Z,9.97
2018-10-07T02:14:47.192Z,9.67
2018-10-07T02:18:51.410Z,9.90
2018-10-07T02:22:55.655Z,9.40
2018-10-07T02:27:00.674Z,9.43
2018-10-07T02:31:28.215Z,9.17
2018-10-07T02:40:50.665Z,8.70
2018-10-07T02:54:11.409Z,8.63
2018-10-07T02:58:15.824Z,9.47
2018-10-07T03:02:19.942Z,9.23
2018-10-07T03:06:24.143Z,8.83
2018-10-07T03:10:28.275Z,8.47
2018-10-07T03:28:39.545Z,9.10
2018-10-07T03:32:48.683Z,9.50
2018-10-07T04:09:30.317Z,9.87
2018-10-07T04:18:24.615Z,10.27
2018-10-07T04:22:28.860Z,9.87
2018-10-07T04:49:47.104Z,10.47
2018-10-07T04:53:51.762Z,11.07
2018-10-07T04:57:55.982Z,10.00
2018-10-07T05:06:55.550Z,9.63
2018-10-07T05:19:49.999Z,9.93
2018-10-07T05:23:57.397Z,9.40
2018-10-07T21:32:53.744Z,4.47
2018-10-07T21:36:58.171Z,4.40
2018-10-07T21:41:02.310Z,4.13
2018-10-07T21:45:06.821Z,4.50
2018-10-07T21:49:11.019Z,4.20
2018-10-07T21:53:15.348Z,3.85
2018-10-07T22:16:11.623Z,4.20
2018-10-07T22:24:59.303Z,4.70
2018-10-07T22:33:41.283Z,5.50
2018-10-07T22:42:14.709Z,5.80
2018-10-07T22:46:18.926Z,5.30
2018-10-07T23:18:08.908Z,6.87
2018-10-07T23:22:13.264Z,7.73
2018-10-07T23:58:42.031Z,10.33
